Time;durP1;ratioP1;P1;durP2;ratioP2;P2;SDS_P1;SDS_P2;PMS_P1;PMS_P2;Temp;Humidity;BMP_temperature;BMP_pressure;BME280_temperature;BME280_humidity;BME280_pressure;Samples;Min_cycle;Max_cycle;Signal;HPM_P1;HPM_P2
2023/09/18 00:00:12;;;;;;;11.50;6.45;;;19.00;99.90;;;;;;5013332;28;20037;-72
2023/09/18 00:02:39;;;;;;;18.90;7.75;;;19.00;99.90;;;;;;5003586;28;20493;-72
2023/09/18 00:05:04;;;;;;;12.60;7.30;;;19.00;99.90;;;;;;4993448;28;20103;-71
2023/09/18 00:07:30;;;;;;;11.38;7.30;;;19.00;99.90;;;;;;5009893;28;20038;-75
2023/09/18 00:09:56;;;;;;;15.93;7.63;;;19.00;99.90;;;;;;5010834;28;20033;-72
2023/09/18 00:12:21;;;;;;;12.55;7.05;;;19.10;99.90;;;;;;5010629;28;20038;-70
2023/09/18 00:14:50;;;;;;;15.40;7.40;;;19.00;99.90;;;;;;5009224;28;20038;-73
2023/09/18 00:17:16;;;;;;;12.00;7.18;;;19.00;99.90;;;;;;5007123;28;20120;-71
2023/09/18 00:19:43;;;;;;;14.32;7.30;;;19.00;99.90;;;;;;5011475;28;20099;-72
2023/09/18 00:22:08;;;;;;;12.55;6.63;;;19.00;99.90;;;;;;5033749;28;20036;-71
2023/09/18 00:24:34;;;;;;;10.75;5.90;;;19.00;99.90;;;;;;5010819;28;20215;-70
2023/09/18 00:26:59;;;;;;;13.80;6.55;;;18.90;99.90;;;;;;5012034;28;20045;-70
2023/09/18 00:29:25;;;;;;;9.90;6.00;;;18.90;99.90;;;;;;5004461;28;20048;-71
2023/09/18 00:31:51;;;;;;;13.10;6.38;;;18.90;99.90;;;;;;5008610;28;20065;-71
2023/09/18 00:34:16;;;;;;;14.75;6.90;;;18.90;99.90;;;;;;5014291;28;20049;-71
2023/09/18 00:36:42;;;;;;;12.38;6.75;;;18.90;99.90;;;;;;5011138;28;20636;-71
2023/09/18 00:39:08;;;;;;;13.90;6.88;;;19.00;99.90;;;;;;5013916;28;20036;-71
2023/09/18 00:41:33;;;;;;;13.68;6.70;;;18.90;99.90;;;;;;5007266;28;20446;-71
2023/09/18 00:43:59;;;;;;;13.63;6.22;;;19.00;99.90;;;;;;5008203;28;20129;-71
2023/09/18 00:46:25;;;;;;;13.02;6.60;;;19.00;99.90;;;;;;5012615;28;20158;-72
2023/09/18 00:48:52;;;;;;;10.85;7.15;;;19.00;99.90;;;;;;5006452;28;20125;-72
2023/09/18 00:51:18;;;;;;;15.88;7.65;;;19.00;99.90;;;;;;5010989;28;20038;-72
2023/09/18 00:53:50;;;;;;;13.05;6.75;;;19.00;99.90;;;;;;4991283;28;20100;-71
2023/09/18 00:56:17;;;;;;;13.98;6.60;;;19.10;99.90;;;;;;5009575;28;20041;-71
2023/09/18 00:58:45;;;;;;;11.15;6.72;;;19.00;99.90;;;;;;5006409;28;20072;-72
2023/09/18 01:01:11;;;;;;;10.35;6.30;;;19.10;99.90;;;;;;5008866;28;20436;-72
2023/09/18 01:03:37;;;;;;;12.70;6.80;;;19.10;99.90;;;;;;5007696;28;20501;-72
2023/09/18 01:06:03;;;;;;;13.68;6.63;;;19.10;99.90;;;;;;5007234;28;20038;-72
2023/09/18 01:08:30;;;;;;;15.70;6.35;;;19.10;99.90;;;;;;5009581;28;20084;-70
2023/09/18 01:11:19;;;;;;;12.25;6.38;;;19.10;99.90;;;;;;5009530;28;20113;-70
2023/09/18 01:14:11;;;;;;;10.00;6.40;;;19.10;99.90;;;;;;5006292;28;20442;-73
2023/09/18 01:16:45;;;;;;;17.08;6.82;;;19.10;99.90;;;;;;4992735;28;20037;-72
2023/09/18 01:19:11;;;;;;;9.80;6.07;;;19.00;99.90;;;;;;5007394;28;20025;-70
2023/09/18 01:21:37;;;;;;;12.70;6.72;;;19.00;99.90;;;;;;5006165;28;20045;-71
2023/09/18 01:24:03;;;;;;;10.30;5.82;;;19.00;99.90;;;;;;5005731;28;20030;-72
2023/09/18 01:26:28;;;;;;;14.13;6.25;;;19.00;99.90;;;;;;5009385;28;20038;-71
2023/09/18 01:28:54;;;;;;;12.70;6.40;;;19.00;99.90;;;;;;5008226;28;20045;-70
2023/09/18 01:31:20;;;;;;;12.75;6.13;;;19.10;99.90;;;;;;5010407;28;20500;-70
2023/09/18 01:33:47;;;;;;;10.20;5.82;;;19.10;99.90;;;;;;5010304;28;20433;-72
2023/09/18 01:36:15;;;;;;;15.80;6.75;;;19.00;99.90;;;;;;5006336;28;20121;-72
2023/09/18 01:38:42;;;;;;;10.80;6.05;;;19.00;99.90;;;;;;5008107;28;20072;-71
2023/09/18 01:41:09;;;;;;;15.02;6.95;;;19.00;99.90;;;;;;5008382;28;20120;-72
2023/09/18 01:43:35;;;;;;;13.02;5.95;;;19.00;99.90;;;;;;5004164;28;20034;-71
2023/09/18 01:46:01;;;;;;;12.18;6.40;;;18.90;99.90;;;;;;5008859;28;20558;-71
2023/09/18 01:48:26;;;;;;;13.40;6.60;;;18.90;99.90;;;;;;5013108;28;20045;-71
2023/09/18 01:50:52;;;;;;;18.15;7.53;;;18.90;99.90;;;;;;5012791;28;20030;-71
2023/09/18 01:53:17;;;;;;;13.07;7.15;;;18.90;99.90;;;;;;5007869;28;20520;-72
2023/09/18 01:55:44;;;;;;;12.93;6.47;;;18.90;99.90;;;;;;5006578;28;20390;-70
2023/09/18 01:58:09;;;;;;;13.18;6.80;;;18.90;99.90;;;;;;5007360;28;20034;-72
2023/09/18 02:00:35;;;;;;;14.40;7.18;;;18.90;99.90;;;;;;5017961;28;20033;-72
2023/09/18 02:03:00;;;;;;;19.45;8.32;;;18.90;99.90;;;;;;5006220;28;20041;-71
2023/09/18 02:05:26;;;;;;;18.60;8.40;;;18.90;99.90;;;;;;5008250;28;20495;-71
2023/09/18 02:07:51;;;;;;;14.57;7.95;;;18.90;99.90;;;;;;5006204;28;20034;-71
2023/09/18 02:10:17;;;;;;;15.88;8.50;;;18.90;99.90;;;;;;5006719;28;20042;-72
2023/09/18 02:12:42;;;;;;;12.95;6.72;;;18.90;99.90;;;;;;5007332;28;20044;-70
2023/09/18 02:15:10;;;;;;;17.13;8.38;;;18.90;99.90;;;;;;5002648;28;20037;-71
2023/09/18 02:17:37;;;;;;;12.77;8.05;;;18.90;99.90;;;;;;5008725;28;20147;-72
2023/09/18 02:20:11;;;;;;;15.60;8.00;;;18.90;99.90;;;;;;5005832;28;20105;-72
2023/09/18 02:22:38;;;;;;;19.77;7.88;;;18.90;99.90;;;;;;5004329;28;20053;-73
2023/09/18 02:25:04;;;;;;;16.90;8.00;;;18.90;99.90;;;;;;5008538;28;20041;-71
2023/09/18 02:27:30;;;;;;;12.93;7.10;;;18.90;99.90;;;;;;5003213;28;20506;-71
2023/09/18 02:29:55;;;;;;;13.35;7.20;;;18.80;99.90;;;;;;5000626;28;20058;-72
2023/09/18 02:32:22;;;;;;;22.27;8.00;;;18.90;99.90;;;;;;5006268;28;20056;-72
2023/09/18 02:34:48;;;;;;;16.70;7.35;;;18.80;99.90;;;;;;5004134;28;20041;-72
2023/09/18 02:37:13;;;;;;;15.00;7.65;;;18.80;99.90;;;;;;5006458;28;20034;-72
2023/09/18 02:39:39;;;;;;;13.05;7.03;;;18.80;99.90;;;;;;5005191;28;20042;-72
2023/09/18 02:42:04;;;;;;;14.43;7.00;;;18.70;99.90;;;;;;5005208;28;20029;-70
2023/09/18 02:44:30;;;;;;;19.67;7.43;;;18.70;99.90;;;;;;5016009;28;20148;-71
2023/09/18 02:46:55;;;;;;;17.00;7.85;;;18.70;99.90;;;;;;5012487;28;20044;-72
2023/09/18 02:49:21;;;;;;;16.40;7.95;;;18.70;99.90;;;;;;5006322;28;20133;-70
2023/09/18 02:51:46;;;;;;;15.45;7.55;;;18.70;99.90;;;;;;5011713;28;20036;-70
2023/09/18 02:54:12;;;;;;;12.88;7.80;;;18.70;99.90;;;;;;5009252;28;20114;-72
2023/09/18 02:56:38;;;;;;;17.38;7.40;;;18.70;99.90;;;;;;5001020;28;20046;-72
2023/09/18 02:59:04;;;;;;;12.93;7.10;;;18.80;99.90;;;;;;5005707;28;20037;-69
2023/09/18 03:01:29;;;;;;;12.88;6.95;;;18.80;99.90;;;;;;5009943;28;20035;-71
2023/09/18 03:03:56;;;;;;;14.48;7.35;;;18.80;99.90;;;;;;5003954;28;20126;-71
2023/09/18 03:06:21;;;;;;;20.30;7.85;;;18.70;99.90;;;;;;5007711;28;20119;-71
2023/09/18 03:08:47;;;;;;;13.88;7.60;;;18.70;99.90;;;;;;5005292;28;20068;-71
2023/09/18 03:11:13;;;;;;;13.55;7.72;;;18.70;99.90;;;;;;5008151;28;20034;-70
2023/09/18 03:13:47;;;;;;;12.18;7.00;;;18.70;99.90;;;;;;5003454;28;20152;-73
2023/09/18 03:16:14;;;;;;;16.30;7.85;;;18.70;99.90;;;;;;5005402;28;20037;-72
2023/09/18 03:18:39;;;;;;;13.75;6.95;;;18.70;99.90;;;;;;5015187;28;20791;-72
2023/09/18 03:21:05;;;;;;;13.70;7.40;;;18.70;99.90;;;;;;5006036;28;20116;-70
2023/09/18 03:23:30;;;;;;;13.85;7.40;;;18.70;99.90;;;;;;5008864;28;20030;-71
2023/09/18 03:25:56;;;;;;;16.80;7.63;;;18.60;99.90;;;;;;5001820;28;20112;-71
2023/09/18 03:28:22;;;;;;;12.57;6.30;;;18.70;99.90;;;;;;4998470;28;20398;-70
2023/09/18 03:30:47;;;;;;;15.95;7.53;;;18.70;99.90;;;;;;5007500;28;20417;-70
2023/09/18 03:33:13;;;;;;;17.70;8.30;;;18.70;99.90;;;;;;5004838;28;20034;-72
2023/09/18 03:35:54;;;;;;;14.45;7.22;;;18.60;99.90;;;;;;5009352;28;20409;-71
2023/09/18 03:38:20;;;;;;;15.43;7.20;;;18.60;99.90;;;;;;5007694;28;20124;-71
2023/09/18 03:40:46;;;;;;;14.98;6.80;;;18.70;99.90;;;;;;5006761;28;20085;-72
2023/09/18 03:43:12;;;;;;;16.95;7.30;;;18.60;99.90;;;;;;5004621;28;20046;-71
2023/09/18 03:45:40;;;;;;;12.82;7.15;;;18.60;99.90;;;;;;5006407;28;20390;-70
2023/09/18 03:48:06;;;;;;;14.68;6.80;;;18.70;99.90;;;;;;5016016;28;20060;-73
2023/09/18 03:50:32;;;;;;;13.18;6.75;;;18.70;99.90;;;;;;5012340;28;20034;-76
2023/09/18 03:52:58;;;;;;;13.02;6.75;;;18.70;99.90;;;;;;5009461;28;20034;-71
2023/09/18 03:55:24;;;;;;;12.68;6.15;;;18.70;99.90;;;;;;5001875;28;20046;-70
2023/09/18 03:57:49;;;;;;;12.90;6.03;;;18.70;99.90;;;;;;4999488;28;20044;-73
2023/09/18 04:00:16;;;;;;;10.73;6.38;;;18.80;99.90;;;;;;5005771;28;20038;-72
2023/09/18 04:02:41;;;;;;;12.85;6.10;;;18.80;99.90;;;;;;5005381;28;20062;-72
2023/09/18 04:05:07;;;;;;;14.48;6.55;;;18.80;99.90;;;;;;5003818;28;20450;-71
2023/09/18 04:07:33;;;;;;;13.95;5.70;;;18.80;99.90;;;;;;5007575;28;20116;-70
2023/09/18 04:09:58;;;;;;;12.13;6.00;;;18.80;99.90;;;;;;5010713;28;20128;-70
2023/09/18 04:12:25;;;;;;;2.28;1.00;;;18.80;99.90;;;;;;5010205;28;20038;-71
2023/09/18 04:14:51;;;;;;;2.22;0.30;;;18.60;99.90;;;;;;5007651;28;20030;-70
2023/09/18 04:17:16;;;;;;;2.58;0.45;;;18.40;99.90;;;;;;5010079;28;20104;-71
2023/09/18 04:19:43;;;;;;;1.27;0.35;;;18.10;99.90;;;;;;5004915;28;20087;-71
2023/09/18 04:22:09;;;;;;;3.03;1.20;;;18.00;99.90;;;;;;5008077;28;20022;-71
2023/09/18 04:24:34;;;;;;;4.07;1.75;;;18.00;99.90;;;;;;5009155;28;20038;-72
2023/09/18 04:27:00;;;;;;;8.48;3.17;;;17.90;99.90;;;;;;5011148;28;20477;-72
2023/09/18 04:29:26;;;;;;;12.25;4.45;;;17.90;99.90;;;;;;5009321;28;20030;-71
2023/09/18 04:31:53;;;;;;;15.80;5.72;;;18.00;99.90;;;;;;5004483;28;20041;-71
2023/09/18 04:34:19;;;;;;;11.32;6.00;;;18.20;99.90;;;;;;5008885;28;20026;-69
2023/09/18 04:36:45;;;;;;;14.50;5.55;;;18.20;99.90;;;;;;5003253;28;20026;-72
2023/09/18 04:39:10;;;;;;;16.38;6.30;;;18.30;99.90;;;;;;5009370;28;20160;-71
2023/09/18 04:41:36;;;;;;;16.70;6.15;;;18.30;99.90;;;;;;5006782;28;20410;-72
2023/09/18 04:44:02;;;;;;;17.77;7.00;;;18.30;99.90;;;;;;5007859;28;20116;-72
2023/09/18 04:46:29;;;;;;;16.63;6.88;;;18.30;99.90;;;;;;5007931;28;20509;-71
2023/09/18 04:48:55;;;;;;;20.67;7.38;;;18.30;99.90;;;;;;5007732;28;20034;-72
2023/09/18 04:51:21;;;;;;;16.02;6.40;;;18.30;99.90;;;;;;5005616;28;20540;-71
2023/09/18 04:53:46;;;;;;;29.42;8.10;;;18.30;99.90;;;;;;5007279;28;20034;-71
2023/09/18 04:56:12;;;;;;;22.60;6.82;;;18.30;99.90;;;;;;5012436;28;20040;-72
2023/09/18 04:58:38;;;;;;;39.13;8.32;;;18.30;99.90;;;;;;5002757;28;20053;-71
2023/09/18 05:01:07;;;;;;;12.20;6.18;;;18.30;99.90;;;;;;5008035;28;20041;-71
2023/09/18 05:03:36;;;;;;;13.57;6.22;;;18.30;99.90;;;;;;5006612;28;20049;-74
2023/09/18 05:06:03;;;;;;;17.88;7.05;;;18.20;99.90;;;;;;5007691;28;20434;-71
2023/09/18 05:08:28;;;;;;;14.73;7.13;;;18.30;99.90;;;;;;5006522;28;20037;-71
2023/09/18 05:10:54;;;;;;;20.10;6.65;;;18.20;99.90;;;;;;5006098;28;20091;-71
2023/09/18 05:13:20;;;;;;;16.17;6.22;;;18.20;99.90;;;;;;5016517;28;20124;-72
2023/09/18 05:15:45;;;;;;;20.08;7.82;;;18.20;99.90;;;;;;5006239;28;20033;-72
2023/09/18 05:18:11;;;;;;;17.15;7.72;;;18.30;99.90;;;;;;5007044;28;20034;-72
2023/09/18 05:20:36;;;;;;;21.27;7.85;;;18.30;99.90;;;;;;5004585;28;20108;-70
2023/09/18 05:23:02;;;;;;;19.10;8.13;;;18.30;99.90;;;;;;5009602;28;20045;-70
2023/09/18 05:25:31;;;;;;;26.45;8.32;;;18.40;99.90;;;;;;5006368;28;20041;-70
2023/09/18 05:27:59;;;;;;;22.77;8.95;;;18.30;99.90;;;;;;5005677;28;20034;-71
2023/09/18 05:30:34;;;;;;;22.30;8.75;;;18.40;99.90;;;;;;5003434;28;20058;-71
2023/09/18 05:33:04;;;;;;;20.23;8.43;;;18.40;99.90;;;;;;5005565;28;20513;-71
2023/09/18 05:35:34;;;;;;;22.48;8.88;;;18.40;99.90;;;;;;5003336;28;20034;-71
2023/09/18 05:38:00;;;;;;;20.65;8.45;;;18.40;99.90;;;;;;5005270;28;20025;-71
2023/09/18 05:40:26;;;;;;;17.83;7.90;;;18.40;99.90;;;;;;5008457;28;20405;-72
2023/09/18 05:42:54;;;;;;;20.58;9.25;;;18.40;99.90;;;;;;5002659;28;20037;-71
2023/09/18 05:45:19;;;;;;;17.50;8.25;;;18.40;99.90;;;;;;5004257;28;20037;-71
2023/09/18 05:47:45;;;;;;;17.77;7.20;;;18.40;99.90;;;;;;5004679;28;20401;-71
2023/09/18 05:50:14;;;;;;;15.13;7.47;;;18.40;99.90;;;;;;5003817;28;20097;-71
2023/09/18 05:52:41;;;;;;;22.75;8.25;;;18.40;99.90;;;;;;5002896;28;20080;-71
2023/09/18 05:55:09;;;;;;;16.00;7.40;;;18.40;99.90;;;;;;5004967;28;20112;-71
2023/09/18 05:57:35;;;;;;;17.63;7.88;;;18.40;99.90;;;;;;5004669;28;20073;-70
2023/09/18 06:00:01;;;;;;;17.38;8.05;;;18.40;99.90;;;;;;5004998;28;20107;-70
2023/09/18 06:02:26;;;;;;;20.75;8.15;;;18.50;99.90;;;;;;5002123;28;20046;-70
2023/09/18 06:05:06;;;;;;;18.70;8.57;;;18.50;99.90;;;;;;5007667;28;20060;-72
2023/09/18 06:07:32;;;;;;;17.92;7.93;;;18.50;99.90;;;;;;5001132;28;20065;-71
2023/09/18 06:09:58;;;;;;;15.68;7.28;;;18.50;99.90;;;;;;5003524;28;20057;-70
2023/09/18 06:12:24;;;;;;;18.10;6.10;;;18.50;99.90;;;;;;5001052;28;20045;-70
2023/09/18 06:14:50;;;;;;;9.07;5.45;;;18.50;99.90;;;;;;5003100;28;20026;-72
2023/09/18 06:17:16;;;;;;;14.13;5.55;;;18.60;99.90;;;;;;5005396;28;20072;-72
2023/09/18 06:19:42;;;;;;;16.17;5.25;;;18.60;99.90;;;;;;5001926;28;20030;-72
2023/09/18 06:22:08;;;;;;;13.32;5.18;;;18.60;99.90;;;;;;5002491;28;20405;-70
2023/09/18 06:24:35;;;;;;;9.85;4.75;;;18.60;99.90;;;;;;5004821;28;20030;-73
2023/09/18 06:27:00;;;;;;;11.40;4.82;;;18.60;99.90;;;;;;5003613;28;20052;-73
2023/09/18 06:29:26;;;;;;;7.38;3.78;;;18.60;99.90;;;;;;5000733;28;20514;-70
2023/09/18 06:31:52;;;;;;;8.10;4.13;;;18.50;99.90;;;;;;5000530;28;20473;-70
2023/09/18 06:34:17;;;;;;;9.07;4.10;;;18.60;99.90;;;;;;4998178;28;20225;-72
2023/09/18 06:36:43;;;;;;;10.70;3.47;;;18.50;99.90;;;;;;5001011;28;20096;-70
2023/09/18 06:39:08;;;;;;;7.82;3.90;;;18.60;99.90;;;;;;5002719;28;20034;-72
2023/09/18 06:41:34;;;;;;;8.10;3.80;;;18.50;99.90;;;;;;4999188;28;20022;-74
2023/09/18 06:44:03;;;;;;;7.85;3.25;;;18.60;99.90;;;;;;5002352;28;20042;-72
2023/09/18 06:46:32;;;;;;;8.30;3.65;;;18.50;99.90;;;;;;4999509;28;20031;-71
2023/09/18 06:48:59;;;;;;;7.25;3.85;;;18.60;99.90;;;;;;5001645;28;20513;-71
2023/09/18 06:51:28;;;;;;;7.63;3.60;;;18.60;99.90;;;;;;4996957;28;20024;-72
2023/09/18 06:53:54;;;;;;;8.88;3.45;;;18.60;99.90;;;;;;5002754;28;20482;-71
2023/09/18 06:56:20;;;;;;;6.35;3.35;;;18.60;99.90;;;;;;4999947;28;20121;-72
2023/09/18 06:58:47;;;;;;;5.30;2.70;;;18.60;99.90;;;;;;5000868;28;20176;-71
2023/09/18 07:01:15;;;;;;;6.07;3.70;;;18.70;99.90;;;;;;4997403;28;20196;-71
2023/09/18 07:03:40;;;;;;;10.85;3.33;;;18.60;99.90;;;;;;4999923;28;20049;-72
2023/09/18 07:06:06;;;;;;;6.82;3.40;;;18.60;99.90;;;;;;4999623;28;20532;-71
2023/09/18 07:08:32;;;;;;;5.63;2.90;;;18.60;99.90;;;;;;4998482;28;20038;-71
2023/09/18 07:10:58;;;;;;;5.50;2.85;;;18.70;99.90;;;;;;4998688;28;20560;-71
2023/09/18 07:13:24;;;;;;;7.15;3.28;;;18.70;99.90;;;;;;5000423;28;20037;-71
2023/09/18 07:15:49;;;;;;;5.68;3.20;;;18.70;99.90;;;;;;4999727;28;20060;-72
2023/09/18 07:18:15;;;;;;;5.50;2.90;;;18.60;99.90;;;;;;4999627;28;20041;-71
2023/09/18 07:20:41;;;;;;;10.35;4.00;;;18.70;99.90;;;;;;4997752;28;20026;-72
2023/09/18 07:23:07;;;;;;;9.02;3.92;;;18.70;99.90;;;;;;5003935;28;20034;-72
2023/09/18 07:25:32;;;;;;;9.25;3.50;;;18.70;99.90;;;;;;5000228;28;20125;-71
2023/09/18 07:27:58;;;;;;;10.15;3.55;;;18.70;99.90;;;;;;5004908;28;20037;-71
2023/09/18 07:30:26;;;;;;;7.50;3.30;;;18.70;99.90;;;;;;5003755;28;20041;-71
2023/09/18 07:32:58;;;;;;;7.20;3.35;;;18.70;99.90;;;;;;4999227;28;20121;-72
2023/09/18 07:35:27;;;;;;;9.07;3.55;;;18.70;99.90;;;;;;4999863;28;20052;-72
2023/09/18 07:37:53;;;;;;;8.82;3.78;;;18.80;99.90;;;;;;4994510;28;20045;-71
2023/09/18 07:40:19;;;;;;;8.65;3.00;;;18.80;99.90;;;;;;5002363;28;20064;-72
2023/09/18 07:42:45;;;;;;;10.77;3.28;;;18.80;99.90;;;;;;4994457;28;20066;-72
2023/09/18 07:45:11;;;;;;;5.82;2.92;;;18.80;99.90;;;;;;4997988;28;20490;-72
2023/09/18 07:47:37;;;;;;;6.07;2.72;;;18.80;99.90;;;;;;4994695;28;20532;-72
2023/09/18 07:50:03;;;;;;;8.55;2.40;;;18.80;99.90;;;;;;4998787;28;20033;-71
2023/09/18 07:52:30;;;;;;;6.97;3.15;;;18.80;99.90;;;;;;5003035;28;20088;-71
2023/09/18 07:54:55;;;;;;;6.38;2.85;;;18.80;99.90;;;;;;5004286;28;20585;-72
2023/09/18 07:57:22;;;;;;;9.30;2.60;;;18.80;99.90;;;;;;5008446;28;20433;-72
2023/09/18 07:59:48;;;;;;;5.82;3.13;;;18.80;99.90;;;;;;5012710;28;20042;-71
2023/09/18 08:02:17;;;;;;;6.75;3.28;;;18.80;99.90;;;;;;5011789;28;20547;-72
2023/09/18 08:04:43;;;;;;;9.00;2.88;;;18.90;99.90;;;;;;5013551;28;20034;-72
2023/09/18 08:07:09;;;;;;;9.18;3.00;;;18.90;99.90;;;;;;5014571;28;20030;-72
2023/09/18 08:09:38;;;;;;;6.40;3.40;;;18.90;99.90;;;;;;5008563;28;20034;-75
2023/09/18 08:12:05;;;;;;;5.37;2.93;;;19.00;99.90;;;;;;5013086;28;20034;-70
2023/09/18 08:14:30;;;;;;;6.18;3.28;;;19.00;99.90;;;;;;5009095;28;20033;-71
2023/09/18 08:16:58;;;;;;;5.28;2.47;;;19.00;99.90;;;;;;5003849;28;20560;-73
2023/09/18 08:19:26;;;;;;;6.38;2.95;;;19.00;99.90;;;;;;5013161;28;20030;-72
2023/09/18 08:21:53;;;;;;;5.25;2.55;;;19.00;99.90;;;;;;5010463;28;20050;-72
2023/09/18 08:24:18;;;;;;;3.88;2.60;;;19.00;99.90;;;;;;5012224;28;20482;-72
2023/09/18 08:26:44;;;;;;;5.70;2.45;;;19.10;99.90;;;;;;5014600;28;20041;-72
2023/09/18 08:29:09;;;;;;;3.58;2.08;;;19.20;99.90;;;;;;5014016;28;20030;-72
2023/09/18 08:31:35;;;;;;;4.63;2.50;;;19.30;99.90;;;;;;5010936;28;20598;-76
2023/09/18 08:34:00;;;;;;;4.13;2.28;;;19.40;99.90;;;;;;5011652;28;20034;-72
2023/09/18 08:36:29;;;;;;;4.15;2.55;;;19.40;99.90;;;;;;5006963;28;20038;-72
2023/09/18 08:38:54;;;;;;;4.85;2.65;;;19.50;99.90;;;;;;5004208;28;20037;-71
2023/09/18 08:41:22;;;;;;;4.30;2.42;;;19.70;99.90;;;;;;5014509;28;20045;-72
2023/09/18 08:43:49;;;;;;;6.47;2.03;;;19.70;99.90;;;;;;5013899;28;20128;-72
2023/09/18 08:46:15;;;;;;;7.85;2.00;;;19.70;99.90;;;;;;5011400;28;20033;-72
2023/09/18 08:48:41;;;;;;;7.32;2.35;;;19.70;99.90;;;;;;5008801;28;20042;-73
2023/09/18 08:51:08;;;;;;;4.43;2.00;;;19.80;99.90;;;;;;5007519;28;20032;-74
2023/09/18 08:53:36;;;;;;;4.07;2.35;;;19.70;99.90;;;;;;5009931;28;20034;-72
2023/09/18 08:56:03;;;;;;;6.30;2.30;;;19.70;99.90;;;;;;5010534;28;20096;-72
2023/09/18 08:58:39;;;;;;;5.40;2.20;;;19.70;99.90;;;;;;5009173;28;20045;-72
2023/09/18 09:01:09;;;;;;;4.70;1.95;;;19.80;99.90;;;;;;5002779;28;20053;-73
2023/09/18 09:03:35;;;;;;;4.93;2.03;;;20.00;99.90;;;;;;5001025;28;20481;-74
2023/09/18 09:06:02;;;;;;;4.50;2.22;;;20.00;99.90;;;;;;5005164;28;20081;-73
2023/09/18 09:08:28;;;;;;;4.57;2.15;;;19.90;99.90;;;;;;5008047;28;20382;-73
2023/09/18 09:10:54;;;;;;;4.97;1.83;;;20.00;99.90;;;;;;5004802;28;20125;-73
2023/09/18 09:13:25;;;;;;;5.68;1.77;;;19.90;99.90;;;;;;5015231;28;20109;-73
2023/09/18 09:15:58;;;;;;;2.63;1.55;;;19.90;99.90;;;;;;5004900;28;20042;-73
2023/09/18 09:18:25;;;;;;;2.05;1.55;;;19.90;99.90;;;;;;5006192;28;20026;-73
2023/09/18 09:20:58;;;;;;;12.52;2.38;;;20.00;99.90;;;;;;5006988;28;20360;-73
2023/09/18 09:23:24;;;;;;;2.80;1.70;;;20.10;99.90;;;;;;5007356;28;20110;-73
2023/09/18 09:25:50;;;;;;;3.85;1.83;;;20.10;99.90;;;;;;5008536;28;20030;-73
2023/09/18 09:28:16;;;;;;;6.07;2.63;;;20.00;99.90;;;;;;5008883;28;20030;-73
2023/09/18 09:30:42;;;;;;;2.28;1.50;;;19.90;99.90;;;;;;5005995;28;20084;-74
2023/09/18 09:33:12;;;;;;;9.63;2.03;;;19.90;99.90;;;;;;5005868;28;20038;-73
2023/09/18 09:35:38;;;;;;;2.27;1.50;;;19.80;99.90;;;;;;5005299;28;20038;-74
2023/09/18 09:38:12;;;;;;;2.88;1.65;;;19.80;99.90;;;;;;5006487;28;20037;-73
2023/09/18 09:40:43;;;;;;;4.53;1.92;;;19.70;99.90;;;;;;5008753;28;20061;-74
2023/09/18 09:43:10;;;;;;;3.10;1.85;;;19.70;99.90;;;;;;5005213;28;20038;-73
2023/09/18 09:45:36;;;;;;;4.90;2.00;;;19.60;99.90;;;;;;5005222;28;20092;-74
2023/09/18 09:48:06;;;;;;;2.70;1.60;;;19.60;99.90;;;;;;5013070;28;20053;-73
2023/09/18 09:50:32;;;;;;;7.40;2.47;;;19.60;99.90;;;;;;5008669;28;20046;-73
2023/09/18 09:52:58;;;;;;;5.95;1.50;;;19.50;99.90;;;;;;5004361;28;20069;-69
2023/09/18 09:55:25;;;;;;;5.55;1.98;;;19.60;99.90;;;;;;5013995;28;20034;-73
2023/09/18 09:58:02;;;;;;;3.33;1.80;;;19.50;99.90;;;;;;5004316;28;20041;-72
2023/09/18 10:00:45;;;;;;;3.70;1.80;;;19.50;99.90;;;;;;5005988;28;20042;-73
2023/09/18 10:03:13;;;;;;;4.88;1.95;;;19.50;99.90;;;;;;5024367;28;20040;-74
2023/09/18 10:05:40;;;;;;;3.25;1.77;;;19.60;99.90;;;;;;5019236;28;20562;-74
2023/09/18 10:08:09;;;;;;;5.18;2.33;;;19.80;99.90;;;;;;5023428;28;20036;-73
2023/09/18 10:10:38;;;;;;;8.93;2.38;;;19.90;99.90;;;;;;5004894;28;20045;-74
2023/09/18 10:13:21;;;;;;;4.40;1.83;;;20.00;99.90;;;;;;5007819;28;20492;-74
2023/09/18 10:15:49;;;;;;;4.28;1.67;;;20.10;99.90;;;;;;5019028;28;20041;-74
2023/09/18 10:18:27;;;;;;;5.35;2.03;;;20.20;99.90;;;;;;5018081;28;20041;-74
2023/09/18 10:21:20;;;;;;;3.95;1.70;;;20.20;99.90;;;;;;5020569;28;20057;-72
2023/09/18 10:24:18;;;;;;;3.90;1.95;;;20.20;99.90;;;;;;4997620;28;20049;-71
2023/09/18 10:27:00;;;;;;;4.00;1.60;;;20.10;99.90;;;;;;5021549;28;20033;-73
2023/09/18 10:29:28;;;;;;;4.35;1.50;;;20.10;99.90;;;;;;5024061;28;20129;-74
2023/09/18 10:31:54;;;;;;;3.22;1.30;;;20.10;99.90;;;;;;5017741;28;20123;-74
2023/09/18 10:34:22;;;;;;;3.58;1.63;;;20.10;99.90;;;;;;5022291;28;20393;-72
2023/09/18 10:36:48;;;;;;;3.65;1.25;;;20.20;99.90;;;;;;5000856;28;20025;-73
2023/09/18 10:39:19;;;;;;;6.63;1.90;;;20.30;99.90;;;;;;5020934;28;20033;-74
2023/09/18 10:41:47;;;;;;;3.83;1.70;;;20.60;99.90;;;;;;5004753;28;20041;-74
2023/09/18 10:44:15;;;;;;;4.25;1.50;;;20.80;99.90;;;;;;5004212;28;20419;-73
2023/09/18 10:46:41;;;;;;;5.05;1.60;;;20.80;99.90;;;;;;5021659;28;20029;-74
2023/09/18 10:49:07;;;;;;;4.38;1.75;;;20.90;99.90;;;;;;5018686;28;20029;-74
2023/09/18 10:51:37;;;;;;;4.38;1.55;;;21.10;99.90;;;;;;5018711;28;20026;-73
2023/09/18 10:54:03;;;;;;;2.28;1.63;;;21.30;99.90;;;;;;5020063;28;20030;-73
2023/09/18 10:56:31;;;;;;;3.53;1.63;;;21.40;99.90;;;;;;5017780;28;20049;-73
2023/09/18 10:58:59;;;;;;;3.45;1.73;;;21.20;99.90;;;;;;5021040;28;20037;-74
2023/09/18 11:01:27;;;;;;;3.70;1.90;;;21.20;99.90;;;;;;5018398;28;20038;-73
2023/09/18 11:03:53;;;;;;;2.92;2.08;;;21.10;99.90;;;;;;5021275;28;20040;-74
2023/09/18 11:06:21;;;;;;;4.25;1.50;;;20.90;99.90;;;;;;5001918;28;20029;-73
2023/09/18 11:08:49;;;;;;;6.55;2.05;;;20.80;99.90;;;;;;5014774;28;20121;-73
2023/09/18 11:11:20;;;;;;;10.30;1.80;;;20.80;99.90;;;;;;4997976;28;20665;-73
2023/09/18 11:13:53;;;;;;;2.67;1.52;;;20.70;99.90;;;;;;5004177;28;20613;-73
2023/09/18 11:16:28;;;;;;;4.68;1.98;;;20.50;99.90;;;;;;5023183;28;20172;-73
2023/09/18 11:19:03;;;;;;;2.55;1.30;;;20.40;99.90;;;;;;5019726;28;20041;-74
2023/09/18 11:21:31;;;;;;;8.27;1.90;;;20.30;99.90;;;;;;5013009;28;20409;-74
2023/09/18 11:24:15;;;;;;;2.63;1.50;;;20.40;99.90;;;;;;5009232;28;20735;-73
2023/09/18 11:26:42;;;;;;;5.55;1.33;;;20.60;99.90;;;;;;5007176;28;20489;-75
2023/09/18 11:29:10;;;;;;;6.07;1.88;;;20.80;99.90;;;;;;5025798;28;20489;-74
2023/09/18 11:31:47;;;;;;;1.98;1.42;;;21.00;99.90;;;;;;5018244;28;20126;-74
2023/09/18 11:34:21;;;;;;;3.50;1.52;;;21.10;99.90;;;;;;5017696;28;20049;-73
2023/09/18 11:36:47;;;;;;;3.65;1.73;;;21.20;99.90;;;;;;5015140;28;20034;-73
2023/09/18 11:39:13;;;;;;;3.17;1.27;;;21.00;99.90;;;;;;5026109;28;20061;-74
2023/09/18 11:41:39;;;;;;;4.18;1.90;;;20.90;99.90;;;;;;5000593;28;20060;-74
2023/09/18 11:44:14;;;;;;;3.53;1.50;;;20.80;99.90;;;;;;5002602;28;20696;-74
2023/09/18 11:46:44;;;;;;;2.88;1.42;;;20.90;99.90;;;;;;5011928;28;20069;-73
2023/09/18 11:49:14;;;;;;;3.60;1.17;;;20.90;99.90;;;;;;5022709;28;20112;-73
2023/09/18 11:51:40;;;;;;;2.42;1.38;;;21.00;99.90;;;;;;5038324;28;20102;-74
2023/09/18 11:54:07;;;;;;;3.88;1.35;;;21.10;99.90;;;;;;5013287;28;20034;-73
2023/09/18 11:56:33;;;;;;;3.50;1.20;;;21.10;99.90;;;;;;5010252;28;20438;-73
2023/09/18 11:58:59;;;;;;;3.05;1.20;;;21.00;99.90;;;;;;5037180;28;20481;-73
2023/09/18 12:01:26;;;;;;;5.07;1.17;;;20.90;99.90;;;;;;5030266;28;20044;-73
2023/09/18 12:03:59;;;;;;;5.18;1.10;;;20.80;99.90;;;;;;4988853;28;20030;-74
2023/09/18 12:06:25;;;;;;;2.85;1.17;;;20.80;99.90;;;;;;5003950;28;20121;-74
2023/09/18 12:08:52;;;;;;;4.55;1.08;;;20.70;99.90;;;;;;4998341;28;20494;-73
2023/09/18 12:11:19;;;;;;;3.58;1.00;;;20.70;99.90;;;;;;5003577;28;20713;-74
2023/09/18 12:13:46;;;;;;;3.58;0.90;;;20.70;99.90;;;;;;5001697;28;20130;-74
2023/09/18 12:16:12;;;;;;;2.97;1.40;;;20.80;99.90;;;;;;5018726;28;20095;-73
2023/09/18 12:18:49;;;;;;;2.42;1.30;;;20.80;99.90;;;;;;5010042;28;20053;-77
2023/09/18 12:21:17;;;;;;;6.45;1.83;;;20.80;99.90;;;;;;5027474;28;20064;-74
2023/09/18 12:23:44;;;;;;;3.75;1.30;;;20.90;99.90;;;;;;5006866;28;20685;-73
2023/09/18 12:26:14;;;;;;;6.03;1.42;;;20.90;99.90;;;;;;5024567;28;20212;-73
2023/09/18 12:28:41;;;;;;;5.60;1.90;;;21.00;99.90;;;;;;5004463;28;20572;-73
2023/09/18 12:31:10;;;;;;;2.70;0.90;;;21.10;99.90;;;;;;5028072;28;20041;-73
2023/09/18 12:33:37;;;;;;;3.73;1.10;;;21.20;99.90;;;;;;5029219;28;20038;-72
2023/09/18 12:36:04;;;;;;;1.58;1.27;;;21.30;99.90;;;;;;5005418;28;20288;-73
2023/09/18 12:38:30;;;;;;;7.18;1.00;;;21.30;99.90;;;;;;5027858;28;20552;-73
2023/09/18 12:41:00;;;;;;;5.20;1.15;;;21.40;99.90;;;;;;5032526;28;20234;-73